Saint Maries, Idaho
Current Conditions -  °F | °C
As of 3:55 PM on Wednesday 22 Oct 2014 (Local Time) from KCOE Reporting Station
Overcast Overcast  
Wind Chill: 57°   Ceiling: 4800
Heat Index: 57°   Visibility: 10mi
Dew Point: 39°   Wind: 7mph
Humidity: 51%   Direction: 160°SSE
Pressure: 29.84"   Gusts: NA
Location:  47.31°N, 116.56°W
Report Text: KCOE 222255Z AUTO 16006KT 10SM OVC048 14/04 A2984 RMK AO1
Loading
Personal Weather Stations






























Interactive Weather Map
Tropical Storm Tracking
New forecast layout! Learn more

10-Day Weather Forecast

Advertisements
Track Severe Weather on mobile